createdAt,value
2023-01-17T00:01:16.700Z,7.55
2023-01-17T00:04:01.983Z,14.40
2023-01-17T00:06:46.933Z,6.35
2023-01-17T00:09:33.341Z,18.95
2023-01-17T00:12:02.279Z,10.77
2023-01-17T00:14:28.874Z,14.38
2023-01-17T00:16:55.361Z,17.95
2023-01-17T00:19:40.125Z,21.77
2023-01-17T00:22:40.915Z,19.77
2023-01-17T00:25:33.563Z,16.63
2023-01-17T00:28:00.015Z,19.27
2023-01-17T00:30:26.768Z,15.43
2023-01-17T00:32:53.235Z,11.68
2023-01-17T00:35:21.749Z,12.60
2023-01-17T00:37:48.217Z,9.25
2023-01-17T00:40:14.732Z,13.73
2023-01-17T00:42:41.178Z,8.75
2023-01-17T00:45:26.739Z,11.30
2023-01-17T00:50:56.413Z,14.23
2023-01-17T00:53:41.455Z,8.60
2023-01-17T00:56:27.023Z,3.78
2023-01-17T01:01:57.912Z,11.70
2023-01-17T01:04:42.934Z,10.65
2023-01-17T01:07:27.822Z,11.75
2023-01-17T01:10:12.701Z,10.80
2023-01-17T01:12:57.521Z,9.77
2023-01-17T01:15:42.412Z,4.97
2023-01-17T01:18:29.795Z,4.68
2023-01-17T01:21:14.687Z,5.95
2023-01-17T01:23:59.601Z,5.18
2023-01-17T01:26:44.465Z,3.53
2023-01-17T01:29:29.258Z,4.32
2023-01-17T01:32:14.194Z,6.47
2023-01-17T01:34:40.656Z,4.15
2023-01-17T01:37:07.095Z,7.05
2023-01-17T01:39:33.521Z,4.38
2023-01-17T01:41:59.943Z,10.85
2023-01-17T01:44:53.244Z,6.30
2023-01-17T01:47:29.207Z,4.82
2023-01-17T01:49:55.851Z,2.70
2023-01-17T01:52:25.642Z,2.20
2023-01-17T01:54:58.690Z,2.20
2023-01-17T01:57:29.971Z,3.25
2023-01-17T02:00:01.834Z,3.40
2023-01-17T02:02:31.017Z,7.63
2023-01-17T02:04:59.649Z,10.25
2023-01-17T02:07:32.706Z,7.57
2023-01-17T02:09:59.338Z,6.60
2023-01-17T02:12:25.883Z,2.58
2023-01-17T02:14:52.352Z,4.03
2023-01-17T02:17:44.212Z,2.65
2023-01-17T02:20:13.602Z,2.90
2023-01-17T02:23:06.337Z,1.45
2023-01-17T02:26:17.289Z,2.22
2023-01-17T02:29:05.778Z,4.45
2023-01-17T02:31:53.387Z,2.17
2023-01-17T02:34:22.899Z,1.42
2023-01-17T02:36:56.188Z,1.38
2023-01-17T02:39:28.757Z,4.82
2023-01-17T02:42:02.234Z,5.65
2023-01-17T02:44:28.725Z,2.63
2023-01-17T02:46:57.599Z,2.92
2023-01-17T02:49:30.764Z,4.72
2023-01-17T02:52:05.763Z,4.03
2023-01-17T02:55:05.044Z,2.78
2023-01-17T02:57:53.367Z,5.75
2023-01-17T03:00:44.516Z,6.72
2023-01-17T03:03:13.680Z,2.67
2023-01-17T03:05:46.243Z,6.75
2023-01-17T03:08:13.335Z,1.40
2023-01-17T03:10:42.193Z,2.97
2023-01-17T03:13:08.766Z,1.23
2023-01-17T03:15:35.265Z,2.88
2023-01-17T03:18:09.460Z,4.88
2023-01-17T03:20:36.153Z,2.53
2023-01-17T03:23:02.600Z,3.60
2023-01-17T03:25:29.052Z,5.82
2023-01-17T03:27:55.533Z,2.05
2023-01-17T03:30:23.064Z,5.05
2023-01-17T03:32:50.143Z,4.05
2023-01-17T03:35:16.989Z,0.90
2023-01-17T03:37:43.490Z,2.85
2023-01-17T03:40:10.602Z,5.43
2023-01-17T03:42:37.155Z,2.92
2023-01-17T03:45:03.989Z,1.90
2023-01-17T03:47:30.576Z,6.43
2023-01-17T03:49:57.163Z,11.45
2023-01-17T03:52:23.609Z,10.75
2023-01-17T03:54:50.092Z,5.05
2023-01-17T03:57:16.620Z,9.57
2023-01-17T03:59:43.073Z,4.10
2023-01-17T04:02:09.692Z,6.15
2023-01-17T04:04:36.195Z,9.80
2023-01-17T04:07:02.689Z,6.85
2023-01-17T04:09:33.925Z,7.57
2023-01-17T04:12:01.936Z,12.05
2023-01-17T04:14:28.387Z,8.95
2023-01-17T04:16:55.800Z,5.10
2023-01-17T04:19:22.307Z,3.00
2023-01-17T04:21:48.726Z,7.72
2023-01-17T04:24:17.742Z,9.40
2023-01-17T04:26:44.270Z,4.50
2023-01-17T04:29:11.089Z,4.93
2023-01-17T04:31:37.638Z,10.88
2023-01-17T04:34:04.050Z,7.63
2023-01-17T04:36:30.546Z,8.02
2023-01-17T04:38:57.008Z,9.27
2023-01-17T04:41:23.455Z,13.80
2023-01-17T04:43:49.894Z,14.40
2023-01-17T04:46:16.334Z,18.40
2023-01-17T04:48:42.753Z,20.33
2023-01-17T04:51:09.413Z,14.68
2023-01-17T04:53:35.853Z,20.35
2023-01-17T04:56:02.961Z,6.47
2023-01-17T04:58:30.438Z,22.55
2023-01-17T05:01:01.571Z,14.88
2023-01-17T05:03:29.506Z,16.75
2023-01-17T05:05:55.994Z,22.70
2023-01-17T05:08:22.650Z,37.08
2023-01-17T05:10:49.147Z,19.00
2023-01-17T05:13:15.722Z,29.25
2023-01-17T05:15:42.264Z,18.27
2023-01-17T05:18:13.156Z,13.27
2023-01-17T05:20:39.730Z,15.07
2023-01-17T05:23:06.180Z,23.25
2023-01-17T05:25:33.135Z,16.85
2023-01-17T05:28:00.177Z,3.40
2023-01-17T05:30:28.302Z,15.00
2023-01-17T05:32:56.361Z,25.55
2023-01-17T05:35:25.428Z,9.70
2023-01-17T05:37:52.723Z,14.55
2023-01-17T05:40:21.447Z,15.75
2023-01-17T05:42:52.793Z,16.83
2023-01-17T05:45:21.143Z,8.10
2023-01-17T05:47:50.351Z,5.28
2023-01-17T05:50:24.108Z,14.40
2023-01-17T05:52:59.423Z,12.77
2023-01-17T05:55:27.605Z,10.40
2023-01-17T05:57:54.677Z,7.15
2023-01-17T06:00:21.903Z,11.35
2023-01-17T06:02:49.111Z,14.13
2023-01-17T06:05:16.336Z,16.23
2023-01-17T06:07:46.712Z,14.27
2023-01-17T06:10:18.069Z,14.75
2023-01-17T06:12:45.830Z,17.25
2023-01-17T06:15:14.281Z,18.00
2023-01-17T06:17:41.021Z,15.60
2023-01-17T06:20:09.289Z,20.92
2023-01-17T06:22:36.062Z,13.73
2023-01-17T06:25:02.778Z,17.70
2023-01-17T06:27:29.335Z,17.98
2023-01-17T06:29:55.768Z,12.45
2023-01-17T06:32:22.193Z,8.68
2023-01-17T06:34:48.616Z,23.00
2023-01-17T06:37:15.139Z,22.70
2023-01-17T06:39:41.679Z,18.67
2023-01-17T06:42:08.133Z,17.98
2023-01-17T06:44:34.580Z,22.27
2023-01-17T06:47:01.123Z,26.08
2023-01-17T06:49:27.575Z,30.08
2023-01-17T06:51:54.088Z,30.42
2023-01-17T06:54:20.511Z,32.30
2023-01-17T06:56:46.928Z,18.38
2023-01-17T06:59:13.360Z,34.58
2023-01-17T07:01:40.250Z,28.27
2023-01-17T07:04:07.010Z,26.55
2023-01-17T07:06:36.163Z,30.88
2023-01-17T07:09:04.206Z,30.52
2023-01-17T07:11:31.261Z,23.83
2023-01-17T07:13:57.709Z,38.13
2023-01-17T07:16:24.227Z,22.30
2023-01-17T07:18:51.778Z,27.23
2023-01-17T07:21:18.331Z,35.90
2023-01-17T07:23:44.876Z,35.08
2023-01-17T07:26:11.304Z,33.67
2023-01-17T07:28:37.726Z,23.13
2023-01-17T07:31:07.009Z,35.40
2023-01-17T07:33:34.087Z,36.42
2023-01-17T07:36:06.258Z,32.22
2023-01-17T07:38:33.008Z,35.13
2023-01-17T07:41:00.097Z,3.45
2023-01-17T07:43:27.080Z,30.83
2023-01-17T07:45:53.808Z,9.07
2023-01-17T07:48:23.599Z,31.92
2023-01-17T07:50:57.438Z,17.48
2023-01-17T07:53:25.707Z,18.73
2023-01-17T07:55:52.571Z,19.33
2023-01-17T07:58:19.619Z,26.10
2023-01-17T08:00:46.304Z,45.95
2023-01-17T08:03:15.184Z,46.53
2023-01-17T08:05:44.250Z,32.65
2023-01-17T08:08:10.729Z,36.72
2023-01-17T08:10:37.206Z,12.27
2023-01-17T08:13:03.674Z,29.58
2023-01-17T08:15:30.206Z,42.50
2023-01-17T08:17:57.995Z,46.65
2023-01-17T08:20:27.681Z,47.35
2023-01-17T08:22:56.184Z,28.00
2023-01-17T08:25:26.854Z,15.48
2023-01-17T08:27:57.526Z,30.67
2023-01-17T08:30:25.040Z,37.80
2023-01-17T08:32:51.542Z,43.83
2023-01-17T08:35:19.909Z,47.58
2023-01-17T08:37:47.523Z,41.53
2023-01-17T08:40:17.126Z,27.52
2023-01-17T08:42:44.272Z,55.50
2023-01-17T08:45:12.201Z,51.47
2023-01-17T08:47:38.696Z,32.38
2023-01-17T08:50:06.876Z,53.30
2023-01-17T08:52:33.906Z,49.78
2023-01-17T08:55:00.377Z,48.20
2023-01-17T08:57:26.862Z,33.28
2023-01-17T08:59:53.507Z,51.40
2023-01-17T09:02:20.323Z,53.70
2023-01-17T09:04:48.538Z,40.20
2023-01-17T09:07:16.756Z,24.98
2023-01-17T09:09:43.260Z,51.25
2023-01-17T09:12:10.039Z,42.63
2023-01-17T09:14:37.459Z,15.85
2023-01-17T09:17:06.786Z,32.55
2023-01-17T09:19:33.310Z,42.30
2023-01-17T09:21:59.731Z,28.35
2023-01-17T09:24:26.226Z,20.83
2023-01-17T09:26:52.690Z,26.48
2023-01-17T09:29:19.136Z,43.33
2023-01-17T09:31:47.404Z,12.98
2023-01-17T09:34:14.437Z,24.88
2023-01-17T09:36:41.642Z,30.23
2023-01-17T09:39:10.547Z,35.65
2023-01-17T09:42:09.302Z,25.83
2023-01-17T09:44:53.686Z,37.42
2023-01-17T09:47:26.266Z,43.13
2023-01-17T09:49:56.297Z,49.13
2023-01-17T09:52:24.595Z,44.30
2023-01-17T09:54:51.432Z,44.30
2023-01-17T09:57:42.706Z,45.00
2023-01-17T10:00:34.386Z,28.15
2023-01-17T10:03:10.471Z,48.42
2023-01-17T10:05:58.496Z,28.45
2023-01-17T10:08:41.486Z,53.95
2023-01-17T10:11:10.586Z,48.78
2023-01-17T10:13:51.340Z,31.10
2023-01-17T10:16:42.073Z,35.88
2023-01-17T10:19:27.257Z,39.10
2023-01-17T10:22:31.036Z,41.75
2023-01-17T10:25:33.114Z,30.88
2023-01-17T10:28:03.830Z,44.90
2023-01-17T10:30:34.910Z,46.22
2023-01-17T10:33:12.604Z,41.92
2023-01-17T10:35:56.871Z,48.67
2023-01-17T10:38:33.538Z,43.78
2023-01-17T10:41:00.146Z,37.67
2023-01-17T10:43:35.453Z,51.42
2023-01-17T10:46:02.479Z,26.27
2023-01-17T10:48:46.333Z,44.92
2023-01-17T10:51:43.004Z,26.38
2023-01-17T10:54:27.644Z,30.25
2023-01-17T10:56:54.214Z,47.50
2023-01-17T10:59:40.921Z,21.38
2023-01-17T11:02:20.391Z,16.77
2023-01-17T11:04:51.952Z,24.55
2023-01-17T11:07:26.725Z,44.17
2023-01-17T11:09:55.351Z,30.33
2023-01-17T11:12:30.406Z,33.38
2023-01-17T11:15:10.634Z,39.08
2023-01-17T11:17:41.371Z,15.50
2023-01-17T11:20:36.029Z,18.58
2023-01-17T11:23:04.729Z,36.25
2023-01-17T11:25:35.588Z,30.77
2023-01-17T11:28:16.363Z,31.38
2023-01-17T11:30:57.479Z,38.58
2023-01-17T11:33:45.866Z,32.90
2023-01-17T11:36:22.543Z,31.50
2023-01-17T11:38:59.171Z,13.52
2023-01-17T11:41:28.171Z,31.08
2023-01-17T11:43:59.512Z,21.35
2023-01-17T11:46:30.206Z,27.75
2023-01-17T11:49:02.136Z,20.70
2023-01-17T11:51:41.371Z,25.33
2023-01-17T11:54:16.780Z,17.80
2023-01-17T11:56:46.176Z,22.70
2023-01-17T11:59:26.648Z,17.83
2023-01-17T12:02:01.853Z,26.95
2023-01-17T12:04:28.306Z,32.42
2023-01-17T12:07:15.850Z,22.23
2023-01-17T12:09:45.426Z,19.17
2023-01-17T12:13:09.919Z,14.60
2023-01-17T12:15:39.254Z,9.40
2023-01-17T12:18:30.723Z,13.60
2023-01-17T12:21:15.310Z,28.23
2023-01-17T12:24:12.665Z,30.25
2023-01-17T12:27:07.954Z,23.00
2023-01-17T12:29:43.485Z,10.20
2023-01-17T12:32:09.965Z,14.25
2023-01-17T12:34:53.486Z,21.42
2023-01-17T12:37:19.980Z,7.35
2023-01-17T12:39:54.033Z,29.75
2023-01-17T12:42:25.926Z,29.65
2023-01-17T12:45:09.770Z,11.98
2023-01-17T12:47:43.294Z,28.67
2023-01-17T12:50:26.375Z,29.35
2023-01-17T12:52:58.650Z,28.13
2023-01-17T12:55:51.329Z,29.02
2023-01-17T12:58:24.686Z,27.40
2023-01-17T13:01:16.565Z,26.95
2023-01-17T13:03:58.330Z,24.60
2023-01-17T13:06:45.008Z,27.05
2023-01-17T13:09:16.801Z,21.42
2023-01-17T13:11:59.878Z,26.92
2023-01-17T13:14:27.913Z,23.67
2023-01-17T13:17:03.494Z,22.17
2023-01-17T13:19:49.012Z,23.70
2023-01-17T13:22:21.825Z,19.75
2023-01-17T13:24:55.800Z,20.13
2023-01-17T13:27:43.536Z,22.77
2023-01-17T13:30:44.210Z,23.85
2023-01-17T13:33:56.784Z,21.52
2023-01-17T13:36:46.376Z,26.25
2023-01-17T13:39:50.868Z,19.88
2023-01-17T13:42:25.773Z,19.58
2023-01-17T13:44:52.568Z,22.08
2023-01-17T13:47:18.999Z,20.20
2023-01-17T13:49:51.528Z,16.77
2023-01-17T13:52:20.997Z,21.92
2023-01-17T13:54:50.597Z,21.38
2023-01-17T13:57:28.482Z,21.42
2023-01-17T13:59:57.679Z,23.00
2023-01-17T14:02:32.930Z,26.92
2023-01-17T14:07:34.677Z,24.15
2023-01-17T14:10:01.660Z,23.80
2023-01-17T14:12:32.546Z,22.30
2023-01-17T14:15:00.823Z,25.83
2023-01-17T14:17:36.207Z,25.27
2023-01-17T14:20:05.501Z,25.77
2023-01-17T14:22:47.844Z,25.95
2023-01-17T14:25:19.227Z,28.13
2023-01-17T14:27:50.381Z,25.92
2023-01-17T14:30:17.416Z,25.70
2023-01-17T14:32:59.086Z,25.35
2023-01-17T14:35:51.130Z,24.05
2023-01-17T14:38:23.161Z,24.10
2023-01-17T14:41:07.567Z,24.15
2023-01-17T14:43:37.698Z,23.30
2023-01-17T14:46:08.671Z,22.38
2023-01-17T14:48:40.165Z,23.38
2023-01-17T14:51:13.446Z,24.80
2023-01-17T14:53:39.999Z,21.77
2023-01-17T14:56:15.262Z,22.88
2023-01-17T15:01:17.959Z,24.60
2023-01-17T15:03:53.006Z,24.00
2023-01-17T15:06:40.933Z,22.08
2023-01-17T15:09:12.698Z,36.35
2023-01-17T15:11:39.364Z,25.95
2023-01-17T15:14:06.759Z,27.38
2023-01-17T15:16:38.884Z,26.80
2023-01-17T15:19:14.169Z,30.80
2023-01-17T15:24:22.484Z,32.60
2023-01-17T15:26:49.245Z,28.42
2023-01-17T15:29:42.520Z,27.27
2023-01-17T15:32:19.874Z,42.83
2023-01-17T15:34:49.745Z,33.53
2023-01-17T15:37:39.858Z,30.90
2023-01-17T15:40:21.495Z,39.35
2023-01-17T15:42:51.616Z,28.45
2023-01-17T15:45:22.212Z,27.23
2023-01-17T15:47:48.951Z,23.63
2023-01-17T15:50:27.861Z,25.63
2023-01-17T15:52:55.851Z,26.42
2023-01-17T15:55:27.525Z,32.03
2023-01-17T15:57:54.217Z,31.67
2023-01-17T16:00:26.387Z,33.85
2023-01-17T16:02:57.567Z,28.50
2023-01-17T16:05:33.460Z,31.60
2023-01-17T16:08:02.754Z,26.65
2023-01-17T16:10:36.287Z,31.02
2023-01-17T16:13:08.142Z,30.63
2023-01-17T16:15:37.410Z,27.13
2023-01-17T16:18:15.367Z,28.58
2023-01-17T16:20:47.598Z,28.67
2023-01-17T16:23:14.237Z,30.88
2023-01-17T16:25:40.837Z,33.97
2023-01-17T16:28:07.484Z,31.55
2023-01-17T16:30:34.009Z,27.63
2023-01-17T16:33:00.814Z,24.92
2023-01-17T16:35:30.045Z,30.25
2023-01-17T16:38:02.382Z,29.48
2023-01-17T16:40:33.840Z,31.23
2023-01-17T16:43:00.831Z,35.05
2023-01-17T16:45:27.558Z,46.33
2023-01-17T16:47:54.688Z,38.22
2023-01-17T16:50:24.167Z,38.33
2023-01-17T16:52:52.324Z,43.55
2023-01-17T16:55:22.647Z,39.55
2023-01-17T16:57:50.158Z,42.42
2023-01-17T17:00:17.973Z,42.70
2023-01-17T17:02:49.911Z,51.17
2023-01-17T17:05:16.516Z,34.63
2023-01-17T17:07:45.471Z,48.92
2023-01-17T17:10:14.464Z,86.50
2023-01-17T17:12:41.180Z,45.38
2023-01-17T17:15:08.447Z,75.28
2023-01-17T17:17:41.600Z,58.67
2023-01-17T17:20:13.402Z,79.93
2023-01-17T17:22:42.971Z,58.85
2023-01-17T17:25:10.352Z,67.40
2023-01-17T17:27:36.781Z,132.27
2023-01-17T17:30:03.618Z,66.63
2023-01-17T17:32:30.897Z,75.75
2023-01-17T17:34:57.373Z,85.15
2023-01-17T17:37:24.019Z,57.55
2023-01-17T17:39:50.539Z,47.10
2023-01-17T17:42:17.247Z,43.90
2023-01-17T17:44:43.705Z,37.95
2023-01-17T17:47:12.769Z,36.17
2023-01-17T17:49:39.838Z,38.85
2023-01-17T17:52:07.668Z,40.58
2023-01-17T17:54:34.731Z,46.22
2023-01-17T17:57:01.463Z,39.13
2023-01-17T17:59:27.967Z,46.30
2023-01-17T18:01:54.422Z,40.47
2023-01-17T18:04:22.085Z,40.45
2023-01-17T18:06:48.524Z,41.28
2023-01-17T18:09:15.110Z,46.35
2023-01-17T18:11:42.896Z,42.30
2023-01-17T18:14:14.080Z,61.70
2023-01-17T18:16:43.245Z,62.88
2023-01-17T18:19:17.360Z,56.08
2023-01-17T18:21:43.921Z,53.65
2023-01-17T18:24:13.472Z,61.45
2023-01-17T18:26:43.288Z,60.72
2023-01-17T18:29:14.093Z,57.08
2023-01-17T18:31:41.729Z,56.53
2023-01-17T18:34:10.895Z,55.10
2023-01-17T18:36:37.668Z,52.75
2023-01-17T18:39:10.634Z,55.47
2023-01-17T18:41:37.119Z,50.88
2023-01-17T18:44:05.879Z,54.28
2023-01-17T18:46:33.441Z,52.50
2023-01-17T18:49:00.278Z,55.50
2023-01-17T18:51:29.409Z,55.17
2023-01-17T18:53:56.045Z,58.10
2023-01-17T18:56:23.311Z,61.63
2023-01-17T18:58:50.922Z,61.80
2023-01-17T19:01:27.017Z,65.43
2023-01-17T19:03:55.780Z,62.90
2023-01-17T19:06:25.350Z,69.60
2023-01-17T19:08:52.156Z,63.67
2023-01-17T19:11:20.252Z,75.72
2023-01-17T19:13:48.529Z,75.32
2023-01-17T19:16:18.758Z,81.65
2023-01-17T19:18:45.527Z,67.70
2023-01-17T19:21:14.720Z,60.67
2023-01-17T19:23:41.804Z,68.72
2023-01-17T19:26:09.325Z,78.13
2023-01-17T19:28:44.203Z,72.68
2023-01-17T19:31:13.799Z,59.90
2023-01-17T19:33:43.586Z,49.28
2023-01-17T19:36:18.596Z,53.75
2023-01-17T19:38:58.647Z,52.38
2023-01-17T19:41:30.663Z,52.63
2023-01-17T19:44:02.030Z,53.42
2023-01-17T19:46:29.132Z,63.63
2023-01-17T19:48:56.955Z,60.40
2023-01-17T19:51:24.577Z,57.92
2023-01-17T19:53:51.410Z,56.30
2023-01-17T19:56:20.720Z,50.95
2023-01-17T19:58:48.085Z,59.28
2023-01-17T20:01:17.651Z,54.40
2023-01-17T20:03:45.500Z,54.40
2023-01-17T20:06:14.201Z,59.40
2023-01-17T20:08:41.229Z,58.80
2023-01-17T20:11:11.302Z,55.85
2023-01-17T20:13:37.875Z,54.67
2023-01-17T20:16:05.726Z,62.83
2023-01-17T20:18:33.687Z,59.45
2023-01-17T20:21:10.002Z,56.80
2023-01-17T20:23:38.832Z,58.10
2023-01-17T20:26:06.134Z,61.63
2023-01-17T20:28:34.369Z,62.80
2023-01-17T20:31:15.449Z,67.97
2023-01-17T20:33:44.057Z,60.28
2023-01-17T20:36:14.822Z,64.53
2023-01-17T20:38:45.170Z,57.05
2023-01-17T20:41:17.600Z,57.78
2023-01-17T20:43:46.023Z,61.05
2023-01-17T20:46:13.288Z,63.70
2023-01-17T20:48:48.398Z,61.00
2023-01-17T20:53:43.334Z,61.97
2023-01-17T20:56:14.324Z,59.67
2023-01-17T20:58:41.316Z,59.47
2023-01-17T21:01:09.748Z,52.17
2023-01-17T21:03:38.058Z,58.15
2023-01-17T21:06:05.944Z,49.85
2023-01-17T21:08:35.484Z,49.58
2023-01-17T21:11:02.288Z,54.55
2023-01-17T21:13:29.197Z,54.95
2023-01-17T21:15:55.738Z,59.60
2023-01-17T21:18:24.085Z,67.70
2023-01-17T21:20:50.970Z,49.75
2023-01-17T21:23:18.223Z,49.03
2023-01-17T21:25:55.739Z,55.17
2023-01-17T21:28:24.566Z,52.10
2023-01-17T21:30:53.311Z,59.80
2023-01-17T21:33:21.248Z,55.60
2023-01-17T21:35:47.974Z,47.28
2023-01-17T21:38:15.198Z,48.42
2023-01-17T21:40:42.564Z,50.50
2023-01-17T21:43:09.357Z,51.00
2023-01-17T21:45:40.092Z,49.20
2023-01-17T21:48:12.020Z,57.60
2023-01-17T21:50:39.040Z,48.42
2023-01-17T21:53:05.759Z,59.60
2023-01-17T21:55:50.975Z,55.10
2023-01-17T21:58:36.432Z,58.38
2023-01-17T22:03:49.287Z,58.55
2023-01-17T22:06:15.913Z,58.22
2023-01-17T22:08:42.774Z,57.70
2023-01-17T22:11:12.145Z,52.67
2023-01-17T22:13:41.538Z,55.03
2023-01-17T22:16:11.287Z,53.35
2023-01-17T22:18:39.570Z,51.03
2023-01-17T22:21:08.956Z,50.92
2023-01-17T22:23:35.712Z,51.05
2023-01-17T22:26:10.049Z,58.97
2023-01-17T22:28:37.592Z,49.20
2023-01-17T22:31:11.178Z,54.47
2023-01-17T22:33:38.524Z,57.78
2023-01-17T22:36:05.945Z,56.20
2023-01-17T22:38:33.206Z,50.13
2023-01-17T22:41:08.207Z,52.92
2023-01-17T22:43:40.579Z,50.67
2023-01-17T22:46:09.563Z,51.97
2023-01-17T22:48:38.153Z,50.70
2023-01-17T22:51:06.793Z,58.13
2023-01-17T22:53:33.322Z,56.17
2023-01-17T22:56:05.966Z,56.50
2023-01-17T22:58:33.414Z,56.33
2023-01-17T23:01:08.493Z,53.10
2023-01-17T23:03:35.290Z,50.70
2023-01-17T23:06:12.715Z,53.55
2023-01-17T23:08:42.032Z,52.38
2023-01-17T23:11:39.468Z,55.28
2023-01-17T23:14:18.182Z,54.33
2023-01-17T23:17:05.023Z,52.42
2023-01-17T23:19:37.450Z,66.80
2023-01-17T23:22:15.742Z,75.68
2023-01-17T23:24:49.431Z,75.57
2023-01-17T23:27:39.116Z,76.70
2023-01-17T23:30:13.382Z,93.20
2023-01-17T23:32:45.561Z,77.75
2023-01-17T23:35:12.075Z,68.75
2023-01-17T23:37:57.270Z,64.53
2023-01-17T23:40:23.976Z,60.10
2023-01-17T23:43:09.166Z,62.13
2023-01-17T23:45:37.195Z,63.55
2023-01-17T23:48:05.653Z,63.88
2023-01-17T23:50:33.137Z,61.55
2023-01-17T23:52:59.983Z,60.80
2023-01-17T23:55:26.813Z,67.50
2023-01-17T23:57:54.267Z,67.85
